Terminal Aerodrome Forecast
Issued by NWS Lake Charles, LA

Home | Current Version | Previous Version | Text Only | Print | Product List | Glossary On
Versions: 1 2 3 4 5 6 7 8 9 10 11 12 13 14 15 16 17 18 19
171
FTUS44 KLCH 281731
TAFBPT
TAF
KBPT 281731Z 2818/2918 16014G22KT P6SM SCT018 OVC025
      TEMPO 2818/2819 BKN018
     FM290200 15014G22KT 6SM HZ BR OVC012
     FM290900 14016G24KT 6SM HZ BR OVC009
     FM291400 15022G30KT P6SM VCSH OVC018=

USA.gov is the U.S. government's official web portal to all federal, state and local government web resources and services.